Time;durP1;ratioP1;P1;durP2;ratioP2;P2;SDS_P1;SDS_P2;PMS_P1;PMS_P2;Temp;Humidity;BMP_temperature;BMP_pressure;BME280_temperature;BME280_humidity;BME280_pressure;Samples;Min_cycle;Max_cycle;Signal;HPM_P1;HPM_P2
2023/09/24 00:01:00;;;;;;;8.38;4.55;;;;;;;8.47;100.00;94610.41;5049513;28;20435;-60
2023/09/24 00:03:27;;;;;;;8.18;4.50;;;;;;;8.55;100.00;94617.47;5050569;28;20385;-60
2023/09/24 00:05:54;;;;;;;9.82;4.97;;;;;;;8.59;100.00;94619.06;5049587;28;20045;-59
2023/09/24 00:08:21;;;;;;;10.00;4.32;;;;;;;8.62;100.00;94617.50;5050605;28;20542;-60
2023/09/24 00:10:55;;;;;;;11.40;3.80;;;;;;;8.61;100.00;94621.38;5049111;28;20049;-60
2023/09/24 00:13:23;;;;;;;31.25;3.78;;;;;;;8.60;100.00;94623.34;5032815;28;20555;-60
2023/09/24 00:15:51;;;;;;;12.23;4.18;;;;;;;8.56;100.00;94625.28;5032093;28;20456;-60
2023/09/24 00:18:19;;;;;;;31.70;4.10;;;;;;;8.57;100.00;94626.06;5050077;28;20047;-60
2023/09/24 00:20:47;;;;;;;15.90;4.10;;;;;;;8.48;100.00;94622.91;5049284;28;20456;-59
2023/09/24 00:23:16;;;;;;;31.47;4.00;;;;;;;8.37;100.00;94637.31;5050180;28;20043;-60
2023/09/24 00:25:44;;;;;;;29.58;3.65;;;;;;;8.27;100.00;94629.84;5049500;28;20048;-59
2023/09/24 00:28:11;;;;;;;111.22;5.97;;;;;;;8.05;100.00;94630.88;5050241;28;20053;-59
2023/09/24 00:30:41;;;;;;;20.83;3.88;;;;;;;8.23;100.00;94629.03;5049938;28;20055;-60
2023/09/24 00:33:08;;;;;;;27.35;5.18;;;;;;;8.26;100.00;94636.47;5028896;28;20648;-59
2023/09/24 00:35:35;;;;;;;39.03;12.37;;;;;;;8.25;100.00;94628.63;5037943;28;20050;-60
2023/09/24 00:38:02;;;;;;;23.77;4.13;;;;;;;8.30;100.00;94633.75;5029352;28;20099;-59
2023/09/24 00:40:29;;;;;;;25.08;4.15;;;;;;;8.22;100.00;94641.13;5029877;28;20034;-59
2023/09/24 00:42:56;;;;;;;14.25;3.75;;;;;;;8.26;100.00;94650.13;5029229;28;20041;-59
2023/09/24 00:45:25;;;;;;;26.77;3.90;;;;;;;8.27;100.00;94640.78;5029864;28;20045;-60
2023/09/24 00:47:53;;;;;;;15.97;4.00;;;;;;;8.31;100.00;94643.50;5027278;28;20671;-59
2023/09/24 00:50:21;;;;;;;28.25;3.90;;;;;;;8.31;100.00;94640.78;5025801;28;20049;-59
2023/09/24 00:52:49;;;;;;;21.67;4.15;;;;;;;8.24;100.00;94638.78;5028523;28;20410;-59
2023/09/24 00:55:17;;;;;;;34.75;6.40;;;;;;;8.30;100.00;94637.25;5029122;28;20490;-59
2023/09/24 00:57:47;;;;;;;24.33;9.05;;;;;;;8.32;100.00;94636.88;5028851;28;20410;-59
2023/09/24 01:00:16;;;;;;;39.10;4.63;;;;;;;8.34;100.00;94634.53;5029569;28;20041;-60
2023/09/24 01:02:46;;;;;;;18.73;3.88;;;;;;;8.33;100.00;94638.44;5028997;28;20483;-59
2023/09/24 01:05:14;;;;;;;17.38;4.00;;;;;;;8.19;100.00;94639.94;5029741;28;20433;-60
2023/09/24 01:07:42;;;;;;;65.90;4.70;;;;;;;8.05;100.00;94642.59;5028904;28;20038;-59
2023/09/24 01:10:11;;;;;;;33.78;4.30;;;;;;;8.04;100.00;94649.22;5029375;28;20536;-60
2023/09/24 01:12:41;;;;;;;16.60;4.07;;;;;;;8.07;100.00;94643.00;5028961;28;20050;-60
2023/09/24 01:15:13;;;;;;;75.35;4.90;;;;;;;8.10;100.00;94644.97;5028544;28;21230;-59
2023/09/24 01:17:40;;;;;;;16.95;3.85;;;;;;;8.15;100.00;94649.31;5029222;28;20057;-60
2023/09/24 01:20:12;;;;;;;59.83;4.80;;;;;;;8.10;100.00;94653.16;5028425;28;20383;-60
2023/09/24 01:22:40;;;;;;;23.48;3.88;;;;;;;8.08;100.00;94646.50;5029183;28;20418;-60
2023/09/24 01:25:07;;;;;;;29.17;3.67;;;;;;;8.00;100.00;94649.19;5028415;28;20573;-59
2023/09/24 01:27:35;;;;;;;14.82;3.33;;;;;;;8.01;100.00;94641.78;5029130;28;20049;-60
2023/09/24 01:30:06;;;;;;;45.28;19.00;;;;;;;7.99;100.00;94639.44;5028371;28;20047;-59
2023/09/24 01:32:34;;;;;;;12.75;4.88;;;;;;;7.99;100.00;94641.41;5029288;28;20111;-60
2023/09/24 01:35:06;;;;;;;5.88;3.47;;;;;;;8.00;100.00;94651.94;5028617;28;20656;-59
2023/09/24 01:37:34;;;;;;;7.67;3.03;;;;;;;7.98;100.00;94648.78;5029276;28;20052;-60
2023/09/24 01:40:19;;;;;;;12.18;3.00;;;;;;;8.00;100.00;94649.19;5028621;28;20054;-60
2023/09/24 01:42:46;;;;;;;21.80;3.53;;;;;;;7.89;100.00;94653.03;5028722;28;20053;-60
2023/09/24 01:45:14;;;;;;;20.38;3.25;;;;;;;7.93;100.00;94657.34;5029339;28;20041;-60
2023/09/24 01:47:41;;;;;;;27.65;3.22;;;;;;;7.94;100.00;94658.13;5026828;28;20049;-59
2023/09/24 01:50:08;;;;;;;59.70;3.43;;;;;;;7.93;100.00;94657.34;5023067;28;20043;-60
2023/09/24 01:52:36;;;;;;;19.73;3.17;;;;;;;7.85;100.00;94655.75;5028790;28;20052;-59
2023/09/24 01:55:03;;;;;;;33.00;3.22;;;;;;;7.72;100.00;94655.25;5027999;28;20042;-59
2023/09/24 01:57:31;;;;;;;28.50;3.10;;;;;;;7.57;100.00;94657.09;5027973;28;20045;-60
2023/09/24 02:00:21;;;;;;;73.05;4.97;;;;;;;7.40;100.00;94655.78;5027421;28;20053;-60
2023/09/24 02:02:45;;;;;;;24.40;3.30;;;;;;;7.31;100.00;94649.84;5027909;28;20405;-59
2023/09/24 02:05:13;;;;;;;135.43;5.63;;;;;;;7.26;100.00;94660.31;5030081;28;20482;-60
2023/09/24 02:07:40;;;;;;;113.97;4.50;;;;;;;7.16;100.00;94659.06;5031735;28;20046;-58
2023/09/24 02:10:08;;;;;;;292.77;8.65;;;;;;;6.61;100.00;94654.19;5031918;28;20049;-59
2023/09/24 02:12:36;;;;;;;47.78;4.47;;;;;;;6.89;100.00;94651.00;5032330;28;20052;-60
2023/09/24 02:15:12;;;;;;;124.67;6.10;;;;;;;6.88;100.00;94656.81;5031340;28;20037;-60
2023/09/24 02:17:43;;;;;;;30.23;3.08;;;;;;;6.99;100.00;94661.22;5032517;28;20512;-60
2023/09/24 02:20:25;;;;;;;37.80;3.40;;;;;;;6.79;100.00;94659.84;5030835;28;20114;-60
2023/09/24 02:22:56;;;;;;;20.25;3.80;;;;;;;6.90;100.00;94657.22;5031460;28;20041;-59
2023/09/24 02:25:28;;;;;;;25.77;3.63;;;;;;;7.04;100.00;94664.78;5031987;28;20042;-60
2023/09/24 02:27:56;;;;;;;17.37;3.20;;;;;;;7.09;100.00;94664.47;5031267;28;20122;-59
2023/09/24 02:30:25;;;;;;;21.70;2.60;;;;;;;7.03;100.00;94668.69;5031954;28;20049;-60
2023/09/24 02:33:02;;;;;;;100.15;4.40;;;;;;;6.88;100.00;94671.28;5031318;28;20049;-60
2023/09/24 02:35:29;;;;;;;114.40;49.28;;;;;;;6.95;100.00;94676.00;5031959;28;20406;-60
2023/09/24 02:37:56;;;;;;;36.13;18.08;;;;;;;7.00;100.00;94670.19;5030968;28;20047;-59
2023/09/24 02:40:26;;;;;;;27.93;4.87;;;;;;;6.99;100.00;94676.84;5031398;28;20037;-60
2023/09/24 02:42:55;;;;;;;83.10;4.10;;;;;;;7.01;100.00;94677.25;5030490;28;20061;-59
2023/09/24 02:45:23;;;;;;;31.83;3.00;;;;;;;6.97;100.00;94669.00;5031668;28;20049;-60
2023/09/24 02:47:51;;;;;;;44.38;3.28;;;;;;;6.88;100.00;94668.53;5029545;28;20045;-59
2023/09/24 02:50:21;;;;;;;8.35;2.95;;;;;;;6.96;100.00;94674.84;5026644;28;20044;-59
2023/09/24 02:52:49;;;;;;;20.67;2.60;;;;;;;6.94;100.00;94663.50;5030144;28;20037;-59
2023/09/24 02:55:16;;;;;;;18.77;3.00;;;;;;;6.78;100.00;94677.38;5031813;28;20040;-59
2023/09/24 02:57:44;;;;;;;13.63;2.70;;;;;;;6.70;100.00;94681.97;5031406;28;20111;-59
2023/09/24 03:00:21;;;;;;;27.23;3.00;;;;;;;6.79;100.00;94681.69;5018732;28;20452;-59
2023/09/24 03:02:48;;;;;;;46.28;3.08;;;;;;;6.88;100.00;94681.38;5031442;28;20406;-58
2023/09/24 03:05:24;;;;;;;33.87;2.50;;;;;;;6.79;100.00;94678.94;5031813;28;20041;-59
2023/09/24 03:07:53;;;;;;;22.58;2.30;;;;;;;6.56;100.00;94684.50;5030823;28;20326;-59
2023/09/24 03:10:23;;;;;;;46.22;3.30;;;;;;;6.48;100.00;94680.13;5031803;28;20046;-59
2023/09/24 03:12:50;;;;;;;73.72;4.95;;;;;;;6.50;100.00;94683.25;5031142;28;20505;-59
2023/09/24 03:15:19;;;;;;;12.38;2.47;;;;;;;6.56;100.00;94688.03;5031569;28;20033;-59
2023/09/24 03:17:46;;;;;;;29.17;2.10;;;;;;;6.49;100.00;94690.66;5028448;28;20041;-59
2023/09/24 03:20:15;;;;;;;6.90;2.03;;;;;;;6.47;100.00;94682.06;5020160;28;20412;-59
2023/09/24 03:22:56;;;;;;;4.10;1.95;;;;;;;6.35;100.00;94680.34;5028328;28;20098;-59
2023/09/24 03:25:25;;;;;;;9.82;2.38;;;;;;;6.36;100.00;94679.22;5031174;28;20053;-59
2023/09/24 03:27:57;;;;;;;39.33;3.08;;;;;;;6.04;100.00;94680.69;5030804;28;20397;-59
2023/09/24 03:30:25;;;;;;;16.07;2.13;;;;;;;5.93;100.00;94688.69;5030958;28;20033;-59
2023/09/24 03:32:53;;;;;;;51.47;3.97;;;;;;;6.06;100.00;94690.09;5030471;28;20254;-59
2023/09/24 03:35:25;;;;;;;11.80;2.65;;;;;;;6.15;100.00;94689.81;5030886;28;20053;-59
2023/09/24 03:37:54;;;;;;;16.25;2.00;;;;;;;6.12;100.00;94691.34;5030748;28;20110;-59
2023/09/24 03:40:23;;;;;;;8.30;2.05;;;;;;;6.19;100.00;94696.09;5031131;28;20398;-59
2023/09/24 03:42:50;;;;;;;25.90;2.37;;;;;;;6.05;100.00;94701.34;5030412;28;20055;-59
2023/09/24 03:45:19;;;;;;;10.80;2.10;;;;;;;6.05;100.00;94709.53;5031017;28;20055;-59
2023/09/24 03:47:46;;;;;;;5.10;2.35;;;;;;;5.97;100.00;94711.34;5030394;28;20057;-59
2023/09/24 03:50:16;;;;;;;24.05;2.10;;;;;;;5.96;100.00;94715.25;5029604;28;20094;-59
2023/09/24 03:52:45;;;;;;;123.82;4.40;;;;;;;5.75;100.00;94710.22;5030364;28;20409;-59
2023/09/24 03:55:12;;;;;;;67.13;3.47;;;;;;;5.85;100.00;94711.53;5030775;28;20040;-59
2023/09/24 03:57:39;;;;;;;5.95;1.65;;;;;;;5.92;100.00;94711.66;5030512;28;20037;-59
2023/09/24 04:00:10;;;;;;;7.13;2.10;;;;;;;5.97;100.00;94714.09;5029621;28;20709;-59
2023/09/24 04:02:40;;;;;;;41.13;2.97;;;;;;;5.96;100.00;94716.03;5030675;28;20068;-59
2023/09/24 04:05:14;;;;;;;46.85;3.08;;;;;;;5.82;100.00;94723.94;5029922;28;20657;-59
2023/09/24 04:07:42;;;;;;;55.13;5.97;;;;;;;5.76;100.00;94728.91;5030111;28;20041;-59
2023/09/24 04:10:09;;;;;;;12.75;3.40;;;;;;;5.80;100.00;94726.25;5030160;28;20405;-59
2023/09/24 04:12:36;;;;;;;45.47;3.30;;;;;;;5.86;100.00;94732.19;5030345;28;20372;-59
2023/09/24 04:15:04;;;;;;;8.35;2.35;;;;;;;5.82;100.00;94734.06;5029761;28;20060;-59
2023/09/24 04:17:33;;;;;;;5.38;2.20;;;;;;;5.88;100.00;94722.50;5030474;28;20045;-59
2023/09/24 04:20:00;;;;;;;96.77;5.90;;;;;;;5.87;100.00;94728.28;5028912;28;20041;-59
2023/09/24 04:22:27;;;;;;;29.42;2.90;;;;;;;5.89;100.00;94729.50;5029973;28;20042;-59
2023/09/24 04:24:54;;;;;;;96.30;5.22;;;;;;;5.85;100.00;94733.31;5029566;28;20045;-59
2023/09/24 04:27:21;;;;;;;26.10;2.30;;;;;;;5.94;100.00;94729.19;5029774;28;20049;-59
2023/09/24 04:29:49;;;;;;;90.63;4.53;;;;;;;5.88;100.00;94738.84;5029414;28;20414;-59
2023/09/24 04:32:15;;;;;;;52.70;3.77;;;;;;;5.87;100.00;94734.53;5015667;28;20422;-59
2023/09/24 04:34:45;;;;;;;18.42;2.28;;;;;;;5.79;100.00;94747.28;5029382;28;20477;-58
2023/09/24 04:37:16;;;;;;;24.25;2.50;;;;;;;5.80;100.00;94750.78;5027350;28;20045;-59
2023/09/24 04:39:47;;;;;;;67.57;3.35;;;;;;;5.83;100.00;94747.31;5029504;28;20495;-59
2023/09/24 04:42:14;;;;;;;24.98;2.50;;;;;;;5.77;100.00;94754.22;5029735;28;20091;-59
2023/09/24 04:44:44;;;;;;;11.20;1.90;;;;;;;5.79;100.00;94755.44;5029445;28;20049;-59
2023/09/24 04:47:10;;;;;;;57.72;3.10;;;;;;;5.78;100.00;94751.13;5028412;28;20042;-59
2023/09/24 04:49:37;;;;;;;26.88;2.67;;;;;;;5.63;100.00;94759.41;5037986;28;20402;-59
2023/09/24 04:52:04;;;;;;;22.55;2.40;;;;;;;5.54;100.00;94765.88;5029235;28;20052;-59
2023/09/24 04:54:31;;;;;;;14.77;2.03;;;;;;;5.57;100.00;94761.66;5028296;28;20045;-59
2023/09/24 04:56:57;;;;;;;27.07;2.50;;;;;;;5.50;100.00;94767.75;5028798;28;20056;-59
2023/09/24 04:59:24;;;;;;;24.58;3.58;;;;;;;5.29;100.00;94768.19;5029601;28;20045;-59
2023/09/24 05:01:51;;;;;;;37.70;2.50;;;;;;;5.32;100.00;94775.59;5029235;28;20049;-58
2023/09/24 05:04:20;;;;;;;49.13;2.85;;;;;;;5.32;100.00;94772.88;5029306;28;20041;-59
2023/09/24 05:06:47;;;;;;;20.80;2.50;;;;;;;5.49;100.00;94779.78;5029007;28;20369;-59
2023/09/24 05:09:14;;;;;;;21.70;2.13;;;;;;;5.56;100.00;94787.31;5029792;28;20430;-60
2023/09/24 05:11:41;;;;;;;39.10;2.92;;;;;;;5.47;100.00;94789.47;5028782;28;20059;-60
2023/09/24 05:14:07;;;;;;;28.02;2.83;;;;;;;5.53;100.00;94791.56;5029318;28;20051;-59
2023/09/24 05:16:34;;;;;;;30.48;2.60;;;;;;;5.54;100.00;94789.63;5029096;28;20053;-60
2023/09/24 05:19:03;;;;;;;43.15;3.35;;;;;;;5.58;100.00;94787.75;5028632;28;20091;-59
2023/09/24 05:21:30;;;;;;;39.53;2.40;;;;;;;5.68;100.00;94789.88;5029360;28;20497;-60
2023/09/24 05:23:57;;;;;;;23.85;2.30;;;;;;;5.68;100.00;94787.13;5028785;28;20098;-60
2023/09/24 05:26:24;;;;;;;26.48;2.33;;;;;;;5.78;100.00;94797.44;5028840;28;20586;-60
2023/09/24 05:28:51;;;;;;;28.90;3.03;;;;;;;5.73;100.00;94791.50;5028613;28;20038;-59
2023/09/24 05:31:17;;;;;;;46.90;3.50;;;;;;;5.73;100.00;94800.44;5029112;28;20041;-59
2023/09/24 05:33:44;;;;;;;16.90;2.80;;;;;;;5.60;100.00;94796.34;5028999;28;20038;-59
2023/09/24 05:36:11;;;;;;;38.42;3.40;;;;;;;5.70;100.00;94806.63;5029166;28;20563;-60
2023/09/24 05:38:38;;;;;;;30.23;4.05;;;;;;;5.81;100.00;94804.06;5028799;28;20045;-59
2023/09/24 05:41:05;;;;;;;64.22;4.75;;;;;;;5.73;100.00;94803.16;5051548;28;20095;-59
2023/09/24 05:43:32;;;;;;;105.75;5.13;;;;;;;5.72;100.00;94807.06;5053369;28;20060;-60
2023/09/24 05:46:01;;;;;;;121.23;6.33;;;;;;;5.77;100.00;94808.69;5052341;28;20109;-59
2023/09/24 05:48:28;;;;;;;52.08;3.50;;;;;;;5.88;100.00;94809.66;5052931;28;20041;-60
2023/09/24 05:50:55;;;;;;;51.92;3.38;;;;;;;5.95;100.00;94806.28;5051159;28;20057;-59
2023/09/24 05:53:22;;;;;;;81.00;5.90;;;;;;;5.97;100.00;94810.22;5052979;28;20039;-59
2023/09/24 05:55:52;;;;;;;34.42;3.75;;;;;;;5.97;100.00;94809.44;5052045;28;20045;-59
2023/09/24 05:58:22;;;;;;;30.03;3.33;;;;;;;5.99;100.00;94805.19;5052802;28;20445;-59
2023/09/24 06:00:51;;;;;;;15.05;2.60;;;;;;;5.99;100.00;94813.38;5050581;28;20052;-59
2023/09/24 06:03:19;;;;;;;66.35;3.67;;;;;;;6.17;100.00;94804.69;5052848;28;20059;-59
2023/09/24 06:05:46;;;;;;;95.90;4.63;;;;;;;6.25;100.00;94809.09;5051701;28;20051;-60
2023/09/24 06:08:13;;;;;;;19.40;2.90;;;;;;;6.42;100.00;94802.38;5051988;28;20039;-60
2023/09/24 06:10:44;;;;;;;55.37;3.07;;;;;;;6.50;100.00;94805.97;5052302;28;20049;-59
2023/09/24 06:13:15;;;;;;;48.67;3.08;;;;;;;6.46;100.00;94811.41;5031176;28;20927;-59
2023/09/24 06:15:43;;;;;;;31.40;3.15;;;;;;;6.15;100.00;94817.91;5031535;28;20495;-59
2023/09/24 06:18:11;;;;;;;16.90;2.70;;;;;;;6.59;100.00;94817.41;5032144;28;20414;-59
2023/09/24 06:20:43;;;;;;;32.13;3.45;;;;;;;7.02;100.00;94809.78;5032246;28;20041;-60
2023/09/24 06:23:10;;;;;;;107.53;5.37;;;;;;;7.17;100.00;94810.78;5029381;28;20068;-59
2023/09/24 06:25:37;;;;;;;32.85;3.00;;;;;;;7.38;100.00;94813.75;5032334;28;20110;-59
2023/09/24 06:28:08;;;;;;;14.10;2.85;;;;;;;7.33;100.00;94813.31;5031133;28;20049;-59
2023/09/24 06:30:36;;;;;;;20.92;3.97;;;;;;;7.29;100.00;94804.28;5031504;28;20056;-59
2023/09/24 06:33:04;;;;;;;12.88;3.25;;;;;;;7.13;100.00;94812.69;5018103;28;20537;-59
2023/09/24 06:35:40;;;;;;;86.77;11.90;;;;;;;6.90;100.00;94810.03;5031776;28;20038;-60
2023/09/24 06:38:07;;;;;;;38.67;5.78;;;;;;;7.02;100.00;94807.06;5012985;28;20076;-59
2023/09/24 06:40:38;;;;;;;18.63;5.30;;;;;;;7.22;100.00;94815.88;5040071;28;20046;-59
2023/09/24 06:43:05;;;;;;;31.50;3.55;;;;;;;6.98;100.00;94808.97;5030879;28;20052;-59
2023/09/24 06:45:32;;;;;;;35.80;4.63;;;;;;;7.28;100.00;94817.13;5031825;28;20393;-60
2023/09/24 06:48:01;;;;;;;39.83;4.10;;;;;;;7.65;100.00;94812.88;5030895;28;20041;-59
2023/09/24 06:50:28;;;;;;;52.17;4.00;;;;;;;7.94;100.00;94809.22;5031356;28;20481;-59
2023/09/24 06:52:56;;;;;;;24.17;3.08;;;;;;;8.42;100.00;94813.97;5030799;28;20398;-59
2023/09/24 06:55:22;;;;;;;10.77;2.30;;;;;;;8.77;100.00;94812.63;5031110;28;20064;-59
2023/09/24 06:57:49;;;;;;;12.77;2.67;;;;;;;9.40;100.00;94805.13;5030440;28;20382;-59
2023/09/24 07:00:16;;;;;;;16.70;2.20;;;;;;;9.40;100.00;94802.38;5031171;28;20045;-59
2023/09/24 07:02:43;;;;;;;9.27;2.17;;;;;;;9.67;100.00;94796.59;5030745;28;20386;-59
2023/09/24 07:05:10;;;;;;;18.70;2.58;;;;;;;9.31;100.00;94799.22;5031123;28;20044;-60
2023/09/24 07:07:37;;;;;;;29.98;2.75;;;;;;;9.27;100.00;94804.66;5031156;28;20440;-59
2023/09/24 07:10:05;;;;;;;24.65;3.00;;;;;;;9.14;100.00;94803.44;5030663;28;20461;-59
2023/09/24 07:12:32;;;;;;;7.33;2.50;;;;;;;9.92;100.00;94811.13;5031128;28;20490;-59
2023/09/24 07:14:58;;;;;;;6.40;2.63;;;;;;;11.16;100.00;94797.72;5030514;28;20318;-59
2023/09/24 07:17:25;;;;;;;34.00;12.95;;;;;;;11.91;100.00;94793.88;5029515;28;20048;-58
2023/09/24 07:19:53;;;;;;;11.93;3.40;;;;;;;12.07;100.00;94809.84;5030591;28;20049;-59
2023/09/24 07:22:25;;;;;;;12.82;2.67;;;;;;;12.63;100.00;94800.78;5030619;28;20540;-59
2023/09/24 07:24:52;;;;;;;5.73;2.57;;;;;;;13.75;100.00;94810.22;5030614;28;20045;-61
2023/09/24 07:27:19;;;;;;;7.43;3.17;;;;;;;14.26;100.00;94810.28;5030409;28;20490;-59
2023/09/24 07:29:46;;;;;;;4.70;2.92;;;;;;;15.20;100.00;94815.06;5030565;28;20050;-59
2023/09/24 07:32:14;;;;;;;6.45;2.40;;;;;;;15.12;100.00;94810.88;5030627;28;20040;-60
2023/09/24 07:34:41;;;;;;;10.02;2.85;;;;;;;14.23;100.00;94805.59;5030479;28;20429;-59
2023/09/24 07:37:08;;;;;;;18.17;5.23;;;;;;;15.04;100.00;94804.69;5030636;28;20044;-59
2023/09/24 07:39:41;;;;;;;16.73;6.78;;;;;;;16.59;100.00;94802.25;5030382;28;20425;-58
2023/09/24 07:42:07;;;;;;;12.40;3.80;;;;;;;17.33;98.55;94804.34;5030353;28;20508;-59
2023/09/24 07:44:34;;;;;;;16.85;3.50;;;;;;;17.27;93.58;94800.53;5029141;28;20049;-60
2023/09/24 07:47:01;;;;;;;4.50;2.60;;;;;;;18.96;83.90;94807.41;5038021;28;20060;-60
2023/09/24 07:49:28;;;;;;;4.00;2.27;;;;;;;19.65;77.81;94796.69;5030172;28;20437;-59
2023/09/24 07:51:54;;;;;;;3.45;2.28;;;;;;;20.92;69.89;94789.41;5030160;28;20065;-60
2023/09/24 07:54:21;;;;;;;4.65;2.50;;;;;;;22.30;65.74;94791.41;5030129;28;20041;-60
2023/09/24 07:56:48;;;;;;;2.90;1.90;;;;;;;23.24;58.98;94792.50;5029660;28;20482;-60
2023/09/24 07:59:15;;;;;;;3.05;1.80;;;;;;;24.00;55.68;94795.00;5029892;28;20052;-61
2023/09/24 08:01:42;;;;;;;3.27;1.70;;;;;;;25.38;49.04;94798.16;5022744;28;20049;-60
2023/09/24 08:04:09;;;;;;;3.65;1.80;;;;;;;24.35;52.40;94805.53;5024812;28;20049;-60
2023/09/24 08:06:36;;;;;;;2.78;1.95;;;;;;;26.03;48.64;94798.66;5030184;28;20041;-60
2023/09/24 08:09:05;;;;;;;3.03;1.70;;;;;;;25.96;47.68;94801.13;5029744;28;20512;-61
2023/09/24 08:11:52;;;;;;;4.53;2.25;;;;;;;26.13;45.15;94795.69;5029729;28;20461;-61
2023/09/24 08:14:19;;;;;;;3.90;2.00;;;;;;;26.29;45.93;94798.66;5029219;28;20407;-60
2023/09/24 08:16:46;;;;;;;3.40;2.40;;;;;;;23.63;50.61;94809.34;5028457;28;20383;-60
2023/09/24 08:19:13;;;;;;;3.92;2.40;;;;;;;22.74;56.82;94801.34;5029250;28;20049;-61
2023/09/24 08:21:39;;;;;;;5.35;3.00;;;;;;;25.68;49.54;94807.22;5029860;28;20050;-61
2023/09/24 08:24:06;;;;;;;9.95;5.93;;;;;;;26.78;46.42;94798.03;5029112;28;20053;-60
2023/09/24 08:26:35;;;;;;;9.03;5.40;;;;;;;28.74;43.74;94794.38;5029428;28;20050;-61
2023/09/24 08:29:05;;;;;;;5.15;3.22;;;;;;;29.31;40.15;94802.78;5028991;28;20038;-60
2023/09/24 08:31:32;;;;;;;3.10;1.90;;;;;;;29.00;37.25;94799.75;5029637;28;20049;-61
2023/09/24 08:33:59;;;;;;;8.07;3.90;;;;;;;28.25;39.61;94803.06;5028942;28;20409;-61
2023/09/24 08:36:26;;;;;;;3.65;1.40;;;;;;;25.64;40.50;94804.63;5029429;28;20045;-61
2023/09/24 08:38:53;;;;;;;3.83;1.50;;;;;;;22.81;46.59;94806.56;5029290;28;20056;-61
2023/09/24 08:41:20;;;;;;;3.25;1.27;;;;;;;24.70;44.23;94800.78;5027322;28;20038;-61
2023/09/24 08:43:46;;;;;;;4.10;1.33;;;;;;;24.89;41.76;94806.94;5029034;28;20413;-60
2023/09/24 08:46:14;;;;;;;3.50;1.20;;;;;;;26.48;39.83;94801.91;5028604;28;20041;-60
2023/09/24 08:48:41;;;;;;;2.45;1.20;;;;;;;24.71;42.51;94810.00;5029035;28;20049;-59
2023/09/24 08:51:09;;;;;;;3.00;1.20;;;;;;;26.04;42.14;94807.91;5029300;28;20053;-61
2023/09/24 08:53:37;;;;;;;4.60;1.48;;;;;;;27.89;38.50;94802.75;5029390;28;20053;-61
2023/09/24 08:56:04;;;;;;;3.67;1.40;;;;;;;25.86;40.74;94801.28;5028784;28;20045;-60
2023/09/24 08:58:31;;;;;;;3.58;1.20;;;;;;;26.56;39.85;94798.63;5028571;28;20057;-60
2023/09/24 09:00:59;;;;;;;3.25;1.20;;;;;;;24.62;41.86;94808.06;5034647;28;20542;-61
2023/09/24 09:03:31;;;;;;;3.30;1.10;;;;;;;25.81;41.61;94793.53;5028897;28;20042;-60
2023/09/24 09:05:58;;;;;;;3.17;1.10;;;;;;;24.89;44.17;94794.91;5027014;28;20041;-60
2023/09/24 09:08:25;;;;;;;3.05;1.30;;;;;;;22.94;47.85;94795.16;5028739;28;20041;-60
2023/09/24 09:10:52;;;;;;;3.47;1.08;;;;;;;28.77;38.39;94787.69;5028432;28;20044;-60
2023/09/24 09:13:19;;;;;;;3.33;1.25;;;;;;;27.32;37.51;94792.50;5028695;28;20059;-60
2023/09/24 09:15:46;;;;;;;2.87;1.00;;;;;;;25.82;39.03;94797.16;5027592;28;20040;-60
2023/09/24 09:18:24;;;;;;;3.63;1.20;;;;;;;25.91;39.21;94797.00;5028846;28;20047;-60
2023/09/24 09:20:59;;;;;;;3.20;1.20;;;;;;;25.89;39.10;94791.84;5028305;28;20045;-60
2023/09/24 09:23:44;;;;;;;3.28;1.10;;;;;;;28.32;37.81;94793.31;5028763;28;20444;-60
2023/09/24 09:26:11;;;;;;;2.42;0.98;;;;;;;27.29;36.30;94787.88;5027543;28;20675;-60
2023/09/24 09:28:38;;;;;;;5.80;1.30;;;;;;;26.88;36.57;94788.13;5028664;28;20057;-60
2023/09/24 09:31:07;;;;;;;2.83;1.00;;;;;;;24.77;38.94;94785.59;5015177;28;20041;-60
2023/09/24 09:33:42;;;;;;;3.08;1.10;;;;;;;24.54;41.11;94784.47;5026990;28;20045;-60
2023/09/24 09:36:22;;;;;;;2.78;1.02;;;;;;;26.40;37.57;94781.09;5027367;28;21504;-60
2023/09/24 09:38:51;;;;;;;2.40;1.17;;;;;;;24.40;40.54;94785.22;5026759;28;20049;-60
2023/09/24 09:41:18;;;;;;;2.13;0.90;;;;;;;22.21;42.82;94788.59;5028289;28;20044;-60
2023/09/24 09:43:47;;;;;;;3.15;1.13;;;;;;;22.17;45.01;94785.19;5027577;28;20079;-59
2023/09/24 09:46:18;;;;;;;2.55;1.20;;;;;;;22.16;44.54;94785.69;5028506;28;20052;-59
2023/09/24 09:48:53;;;;;;;4.10;1.60;;;;;;;18.88;54.75;94788.63;5028211;28;20095;-59
2023/09/24 09:51:21;;;;;;;4.30;1.33;;;;;;;17.54;69.13;94777.97;5028160;28;20074;-59
2023/09/24 09:53:50;;;;;;;2.30;0.90;;;;;;;18.76;65.83;94788.19;5028097;28;20064;-59
2023/09/24 09:56:18;;;;;;;3.22;1.33;;;;;;;15.90;89.57;94799.47;5015247;28;20154;-59
2023/09/24 09:58:47;;;;;;;2.65;1.23;;;;;;;18.41;72.91;94794.88;5027709;28;20068;-59
2023/09/24 10:01:18;;;;;;;3.22;1.38;;;;;;;15.86;84.69;94796.00;5026451;28;20045;-58
2023/09/24 10:03:46;;;;;;;3.00;1.30;;;;;;;17.26;78.00;94787.88;5027895;28;20563;-60
2023/09/24 10:06:14;;;;;;;4.03;1.60;;;;;;;16.68;81.33;94791.34;5028175;28;20041;-60
2023/09/24 10:08:47;;;;;;;4.55;1.65;;;;;;;18.48;74.27;94789.13;5027651;28;20049;-59
2023/09/24 10:11:30;;;;;;;3.25;1.40;;;;;;;24.27;50.44;94789.13;5028422;28;20041;-60
2023/09/24 10:14:03;;;;;;;3.03;1.15;;;;;;;24.82;47.31;94773.66;5027868;28;20049;-61
2023/09/24 10:16:48;;;;;;;2.80;1.25;;;;;;;24.80;47.07;94776.16;5028256;28;20486;-60
2023/09/24 10:19:15;;;;;;;3.20;1.20;;;;;;;23.03;47.75;94794.34;5027383;28;21903;-60
2023/09/24 10:21:44;;;;;;;5.55;1.58;;;;;;;19.13;58.86;94798.91;5027864;28;20556;-60
2023/09/24 10:24:14;;;;;;;3.35;1.35;;;;;;;15.97;86.08;94810.38;5028208;28;20055;-60
2023/09/24 10:26:48;;;;;;;3.38;1.38;;;;;;;16.98;80.41;94803.28;5029485;28;20049;-59
2023/09/24 10:29:20;;;;;;;5.40;1.55;;;;;;;18.02;74.02;94792.09;5031441;28;20042;-60
2023/09/24 10:32:25;;;;;;;2.83;1.47;;;;;;;17.51;78.92;94803.06;5030242;28;20045;-59
2023/09/24 10:34:55;;;;;;;4.32;1.33;;;;;;;20.44;63.00;94786.16;4989217;28;20045;-60
2023/09/24 10:37:37;;;;;;;3.17;1.30;;;;;;;21.46;59.35;94778.03;4995300;28;20050;-60
2023/09/24 10:40:09;;;;;;;3.05;1.30;;;;;;;22.61;54.08;94781.94;5028524;28;20585;-60
2023/09/24 10:42:41;;;;;;;2.63;1.50;;;;;;;22.57;52.39;94783.38;5050866;28;20387;-60
2023/09/24 10:45:09;;;;;;;9.03;3.20;;;;;;;24.66;48.94;94777.00;5038524;28;20691;-60
2023/09/24 10:47:41;;;;;;;3.65;1.48;;;;;;;25.23;46.29;94772.94;5031212;28;20045;-60
2023/09/24 10:50:15;;;;;;;3.03;1.40;;;;;;;22.67;49.23;94788.44;5030695;28;20857;-60
2023/09/24 10:53:01;;;;;;;2.72;1.10;;;;;;;26.69;41.65;94780.06;5030656;28;20094;-60
2023/09/24 10:58:03;;;;;;;3.40;1.30;;;;;;;22.18;51.44;94780.41;5030674;28;20045;-60
2023/09/24 11:00:32;;;;;;;3.60;1.60;;;;;;;18.34;71.12;94791.09;5039255;28;20041;-60
2023/09/24 11:03:01;;;;;;;5.93;1.60;;;;;;;19.16;62.81;94787.66;5030541;28;20050;-60
2023/09/24 11:05:33;;;;;;;3.10;1.40;;;;;;;17.45;70.58;94788.94;5030726;28;20041;-60
2023/09/24 11:08:00;;;;;;;4.13;1.48;;;;;;;18.66;64.77;94783.75;5030682;28;20556;-60
2023/09/24 11:10:27;;;;;;;3.57;1.30;;;;;;;18.92;66.40;94794.88;5030645;28;20046;-60
2023/09/24 11:12:57;;;;;;;3.42;1.40;;;;;;;22.09;52.70;94779.19;5030707;28;20071;-61
2023/09/24 11:15:25;;;;;;;3.50;1.30;;;;;;;19.65;58.58;94785.56;5030749;28;20042;-60
2023/09/24 11:17:52;;;;;;;3.45;1.30;;;;;;;22.95;49.69;94774.31;5030723;28;20049;-61
2023/09/24 11:20:23;;;;;;;2.80;1.10;;;;;;;23.81;45.37;94775.56;5030465;28;20043;-60
2023/09/24 11:23:01;;;;;;;2.97;1.20;;;;;;;21.65;49.07;94773.19;5030647;28;20406;-60
2023/09/24 11:25:30;;;;;;;3.10;1.30;;;;;;;19.35;54.00;94774.66;5030412;28;20067;-60
2023/09/24 11:28:02;;;;;;;3.63;1.70;;;;;;;17.11;63.71;94778.41;5029994;28;20045;-60
2023/09/24 11:30:42;;;;;;;3.47;1.50;;;;;;;16.73;75.79;94771.41;5017829;28;20067;-59
2023/09/24 11:33:16;;;;;;;3.33;1.63;;;;;;;15.47;81.50;94770.66;5029647;28;20456;-60
2023/09/24 11:35:44;;;;;;;3.80;1.40;;;;;;;16.35;78.64;94780.22;5030130;28;20466;-59
2023/09/24 11:38:11;;;;;;;2.83;1.40;;;;;;;17.85;72.69;94760.88;5029214;28;20584;-59